首页
METAR-TAF:

METAR-TAF

机场 :

莫斯塔爾, 波斯尼亚和黑塞哥维那

纬度: 43-21N, 经度: 017-48E, 海拔: 108米

当前天气观测

该预报发布于56分钟前的11:00 UTC
风速9节,风向北转西北,有时为22节阵风,在西东北之间变化
温度 10°C
湿度 40%
气压 1009 hPa
能见度10公里或以上
少量云层高于5000英尺

METAR: LQMO 271100Z 34009G22KT 260V040 9999 FEW050 10/M03 Q1009

时间: 12:56 (11:56 UTC)

预报

该预报发布于56分钟前的11:00 UTC
预报有效从27日的 12点(UTC)到 28日的 12点(UTC)
风速8节,风向西北
能见度10公里或以上
散云层高于4000英尺
几率 40% :
短暂存在
从 27日的 12点(UTC)到 27日的 15点(UTC)
风速12节,风向北转东北
短暂存在
从 28日的 02点(UTC)到 28日的 11点(UTC)
风速10节,风向南转南东
多云层高于1500英尺
阴天层高于4500英尺
几率 40% :
短暂存在
从 28日的 06点(UTC)到 28日的 10点(UTC)
风速15节,风向南转西南,有时为25节阵风
能見度: 4000
散云层高于1000英尺
少量云层高于3000英尺, 积雨云.
多云层高于4500英尺
雷暴, 雨

TAF: LQMO 271100Z 2712/2812 32008KT 9999 SCT040 TX12/2713Z TN04/2804Z PROB40 TEMPO 2712/2715 02012KT TEMPO 2802/2811 16010KT RA BKN015 OVC045 PROB40 TEMPO 2806/2810 20015G25KT 4000 TSRA SCT010 FEW030CB BKN045

超过4000个机场的气象观测和天气预报(METAR&TAF报告)。

可查询的气象台以黄色和红色小点在地图上表示。

将鼠标移到小点上方,可查看气象台名称。

然后点击查看天气观测和预报。

如需切换地图:点击带黑十字的绿色按钮放大地图;点击带横线的绿色按钮缩小地图;或者点击绿色箭头查看邻近地区的地图。


METAR-TAF: